sensor_id;sensor_type;location;lat;lon;timestamp;P1;durP1;ratioP1;P2;durP2;ratioP2
36789;SDS011;22740;52.182;8.780;2023-12-29T00:04:09;130.65;;;124.07;;
36789;SDS011;22740;52.182;8.780;2023-12-29T00:10:11;133.80;;;126.78;;
36789;SDS011;22740;52.182;8.780;2023-12-29T00:16:14;134.13;;;126.95;;
36789;SDS011;22740;52.182;8.780;2023-12-29T00:22:17;131.30;;;124.30;;
36789;SDS011;22740;52.182;8.780;2023-12-29T00:28:19;134.88;;;127.85;;
36789;SDS011;22740;52.182;8.780;2023-12-29T00:34:21;138.23;;;130.52;;
36789;SDS011;22740;52.182;8.780;2023-12-29T00:40:23;134.32;;;127.28;;
36789;SDS011;22740;52.182;8.780;2023-12-29T00:46:25;135.50;;;128.07;;
36789;SDS011;22740;52.182;8.780;2023-12-29T00:52:27;138.35;;;131.02;;
36789;SDS011;22740;52.182;8.780;2023-12-29T00:58:29;136.75;;;129.15;;
36789;SDS011;22740;52.182;8.780;2023-12-29T01:04:31;143.82;;;135.55;;
36789;SDS011;22740;52.182;8.780;2023-12-29T01:10:33;134.13;;;126.32;;
36789;SDS011;22740;52.182;8.780;2023-12-29T01:16:35;129.68;;;121.80;;
36789;SDS011;22740;52.182;8.780;2023-12-29T01:22:37;122.47;;;115.18;;
36789;SDS011;22740;52.182;8.780;2023-12-29T01:28:39;121.10;;;113.50;;
36789;SDS011;22740;52.182;8.780;2023-12-29T01:34:42;124.15;;;116.25;;
36789;SDS011;22740;52.182;8.780;2023-12-29T01:40:44;122.00;;;114.43;;
36789;SDS011;22740;52.182;8.780;2023-12-29T01:46:50;122.60;;;115.28;;
36789;SDS011;22740;52.182;8.780;2023-12-29T01:52:55;124.95;;;117.47;;
36789;SDS011;22740;52.182;8.780;2023-12-29T01:58:58;121.57;;;114.28;;
36789;SDS011;22740;52.182;8.780;2023-12-29T02:05:12;123.88;;;116.63;;
36789;SDS011;22740;52.182;8.780;2023-12-29T02:11:16;125.93;;;118.20;;
36789;SDS011;22740;52.182;8.780;2023-12-29T02:17:21;129.27;;;121.68;;
36789;SDS011;22740;52.182;8.780;2023-12-29T02:23:28;128.55;;;120.75;;
36789;SDS011;22740;52.182;8.780;2023-12-29T02:29:30;122.20;;;114.57;;
36789;SDS011;22740;52.182;8.780;2023-12-29T02:35:35;123.80;;;116.22;;
36789;SDS011;22740;52.182;8.780;2023-12-29T02:41:41;122.25;;;114.68;;
36789;SDS011;22740;52.182;8.780;2023-12-29T02:47:43;127.38;;;119.78;;
36789;SDS011;22740;52.182;8.780;2023-12-29T02:53:46;128.63;;;121.25;;
36789;SDS011;22740;52.182;8.780;2023-12-29T02:59:50;131.87;;;124.23;;
36789;SDS011;22740;52.182;8.780;2023-12-29T03:05:52;134.75;;;126.90;;
36789;SDS011;22740;52.182;8.780;2023-12-29T03:11:54;135.43;;;127.47;;
36789;SDS011;22740;52.182;8.780;2023-12-29T03:17:56;127.05;;;119.28;;
36789;SDS011;22740;52.182;8.780;2023-12-29T03:23:58;118.72;;;111.10;;
36789;SDS011;22740;52.182;8.780;2023-12-29T03:30:00;101.28;;;94.97;;
36789;SDS011;22740;52.182;8.780;2023-12-29T03:36:03;90.78;;;85.15;;
36789;SDS011;22740;52.182;8.780;2023-12-29T03:42:05;91.30;;;85.38;;
36789;SDS011;22740;52.182;8.780;2023-12-29T03:48:07;90.28;;;84.68;;
36789;SDS011;22740;52.182;8.780;2023-12-29T03:54:10;93.53;;;87.78;;
36789;SDS011;22740;52.182;8.780;2023-12-29T04:00:13;92.55;;;86.90;;
36789;SDS011;22740;52.182;8.780;2023-12-29T04:06:15;90.75;;;85.05;;
36789;SDS011;22740;52.182;8.780;2023-12-29T04:12:17;94.25;;;88.65;;
36789;SDS011;22740;52.182;8.780;2023-12-29T04:18:20;96.90;;;91.13;;
36789;SDS011;22740;52.182;8.780;2023-12-29T04:24:23;99.13;;;93.07;;
36789;SDS011;22740;52.182;8.780;2023-12-29T04:30:24;88.35;;;82.97;;
36789;SDS011;22740;52.182;8.780;2023-12-29T04:36:26;85.10;;;79.85;;
36789;SDS011;22740;52.182;8.780;2023-12-29T04:42:28;79.45;;;74.50;;
36789;SDS011;22740;52.182;8.780;2023-12-29T04:48:30;77.75;;;73.13;;
36789;SDS011;22740;52.182;8.780;2023-12-29T04:54:32;79.45;;;74.55;;
36789;SDS011;22740;52.182;8.780;2023-12-29T05:00:35;82.85;;;77.75;;
36789;SDS011;22740;52.182;8.780;2023-12-29T05:06:37;78.75;;;73.38;;
36789;SDS011;22740;52.182;8.780;2023-12-29T05:12:38;79.30;;;74.00;;
36789;SDS011;22740;52.182;8.780;2023-12-29T05:18:40;80.15;;;75.15;;
36789;SDS011;22740;52.182;8.780;2023-12-29T05:24:44;81.65;;;76.15;;
36789;SDS011;22740;52.182;8.780;2023-12-29T05:30:48;81.25;;;76.00;;
36789;SDS011;22740;52.182;8.780;2023-12-29T05:36:50;85.45;;;79.95;;
36789;SDS011;22740;52.182;8.780;2023-12-29T05:42:53;88.32;;;82.43;;
36789;SDS011;22740;52.182;8.780;2023-12-29T05:48:55;86.00;;;80.20;;
36789;SDS011;22740;52.182;8.780;2023-12-29T05:54:57;89.80;;;83.65;;
36789;SDS011;22740;52.182;8.780;2023-12-29T06:00:59;88.10;;;82.20;;
36789;SDS011;22740;52.182;8.780;2023-12-29T06:07:02;95.07;;;88.80;;
36789;SDS011;22740;52.182;8.780;2023-12-29T06:13:04;97.53;;;90.90;;
36789;SDS011;22740;52.182;8.780;2023-12-29T06:19:06;93.93;;;87.88;;
36789;SDS011;22740;52.182;8.780;2023-12-29T06:25:12;99.95;;;93.10;;
36789;SDS011;22740;52.182;8.780;2023-12-29T06:31:14;99.47;;;93.07;;
36789;SDS011;22740;52.182;8.780;2023-12-29T06:43:20;109.50;;;102.30;;
36789;SDS011;22740;52.182;8.780;2023-12-29T06:49:22;108.13;;;101.35;;
36789;SDS011;22740;52.182;8.780;2023-12-29T06:55:25;108.20;;;101.20;;
36789;SDS011;22740;52.182;8.780;2023-12-29T07:01:27;110.00;;;102.97;;
36789;SDS011;22740;52.182;8.780;2023-12-29T07:07:29;108.18;;;101.40;;
36789;SDS011;22740;52.182;8.780;2023-12-29T07:13:31;110.18;;;103.45;;
36789;SDS011;22740;52.182;8.780;2023-12-29T07:19:33;112.03;;;104.78;;
36789;SDS011;22740;52.182;8.780;2023-12-29T07:25:39;108.28;;;101.82;;
36789;SDS011;22740;52.182;8.780;2023-12-29T07:31:41;104.28;;;97.78;;
36789;SDS011;22740;52.182;8.780;2023-12-29T07:37:43;104.90;;;98.20;;
36789;SDS011;22740;52.182;8.780;2023-12-29T07:43:45;107.32;;;100.50;;
36789;SDS011;22740;52.182;8.780;2023-12-29T07:49:47;109.07;;;102.47;;
36789;SDS011;22740;52.182;8.780;2023-12-29T07:55:51;112.22;;;105.43;;
36789;SDS011;22740;52.182;8.780;2023-12-29T08:01:54;106.57;;;99.85;;
36789;SDS011;22740;52.182;8.780;2023-12-29T08:07:59;109.80;;;103.32;;
36789;SDS011;22740;52.182;8.780;2023-12-29T08:14:01;116.68;;;109.43;;
36789;SDS011;22740;52.182;8.780;2023-12-29T08:20:03;113.93;;;107.30;;
36789;SDS011;22740;52.182;8.780;2023-12-29T08:26:06;110.70;;;104.00;;
36789;SDS011;22740;52.182;8.780;2023-12-29T08:32:08;111.13;;;104.55;;
36789;SDS011;22740;52.182;8.780;2023-12-29T08:38:10;110.95;;;104.28;;
36789;SDS011;22740;52.182;8.780;2023-12-29T08:44:13;110.35;;;103.65;;
36789;SDS011;22740;52.182;8.780;2023-12-29T08:50:16;106.93;;;100.28;;
36789;SDS011;22740;52.182;8.780;2023-12-29T08:56:18;102.55;;;96.25;;
36789;SDS011;22740;52.182;8.780;2023-12-29T09:02:20;99.93;;;93.45;;
36789;SDS011;22740;52.182;8.780;2023-12-29T09:08:22;93.80;;;87.28;;
36789;SDS011;22740;52.182;8.780;2023-12-29T09:14:24;96.70;;;90.60;;
36789;SDS011;22740;52.182;8.780;2023-12-29T09:20:26;90.55;;;84.53;;
36789;SDS011;22740;52.182;8.780;2023-12-29T09:26:28;86.25;;;80.72;;
36789;SDS011;22740;52.182;8.780;2023-12-29T09:32:30;90.63;;;84.85;;
36789;SDS011;22740;52.182;8.780;2023-12-29T09:38:33;84.57;;;79.40;;
36789;SDS011;22740;52.182;8.780;2023-12-29T09:44:35;86.30;;;80.82;;
36789;SDS011;22740;52.182;8.780;2023-12-29T09:50:38;86.35;;;81.00;;
36789;SDS011;22740;52.182;8.780;2023-12-29T09:56:41;87.03;;;81.55;;
36789;SDS011;22740;52.182;8.780;2023-12-29T10:02:43;86.22;;;80.82;;
36789;SDS011;22740;52.182;8.780;2023-12-29T10:08:45;86.63;;;81.43;;
36789;SDS011;22740;52.182;8.780;2023-12-29T10:14:52;80.50;;;75.72;;
36789;SDS011;22740;52.182;8.780;2023-12-29T10:21:08;86.00;;;80.55;;
36789;SDS011;22740;52.182;8.780;2023-12-29T10:27:13;85.75;;;80.68;;
36789;SDS011;22740;52.182;8.780;2023-12-29T10:33:19;82.15;;;77.13;;
36789;SDS011;22740;52.182;8.780;2023-12-29T10:39:23;90.30;;;84.93;;
36789;SDS011;22740;52.182;8.780;2023-12-29T10:45:26;90.70;;;85.25;;
36789;SDS011;22740;52.182;8.780;2023-12-29T10:51:27;89.32;;;83.72;;
36789;SDS011;22740;52.182;8.780;2023-12-29T10:57:30;91.38;;;85.82;;
36789;SDS011;22740;52.182;8.780;2023-12-29T11:03:33;97.32;;;91.22;;
36789;SDS011;22740;52.182;8.780;2023-12-29T11:09:35;93.00;;;87.30;;
36789;SDS011;22740;52.182;8.780;2023-12-29T11:15:37;101.43;;;95.30;;
36789;SDS011;22740;52.182;8.780;2023-12-29T11:21:47;93.40;;;87.72;;
36789;SDS011;22740;52.182;8.780;2023-12-29T11:27:54;97.15;;;91.13;;
36789;SDS011;22740;52.182;8.780;2023-12-29T11:34:00;100.17;;;93.97;;
36789;SDS011;22740;52.182;8.780;2023-12-29T11:40:14;93.35;;;87.55;;
36789;SDS011;22740;52.182;8.780;2023-12-29T11:52:39;104.13;;;97.72;;
36789;SDS011;22740;52.182;8.780;2023-12-29T11:58:41;115.50;;;108.78;;
36789;SDS011;22740;52.182;8.780;2023-12-29T12:04:43;107.70;;;101.40;;
36789;SDS011;22740;52.182;8.780;2023-12-29T12:10:46;108.38;;;102.15;;
36789;SDS011;22740;52.182;8.780;2023-12-29T12:16:49;104.07;;;97.95;;
36789;SDS011;22740;52.182;8.780;2023-12-29T12:22:58;101.03;;;95.03;;
36789;SDS011;22740;52.182;8.780;2023-12-29T12:29:01;105.80;;;99.60;;
36789;SDS011;22740;52.182;8.780;2023-12-29T12:35:04;103.20;;;97.00;;
36789;SDS011;22740;52.182;8.780;2023-12-29T12:41:21;96.60;;;90.78;;
36789;SDS011;22740;52.182;8.780;2023-12-29T12:47:25;102.43;;;96.22;;
36789;SDS011;22740;52.182;8.780;2023-12-29T12:53:29;99.05;;;92.97;;
36789;SDS011;22740;52.182;8.780;2023-12-29T12:59:32;92.63;;;86.95;;
36789;SDS011;22740;52.182;8.780;2023-12-29T13:05:35;92.82;;;87.28;;
36789;SDS011;22740;52.182;8.780;2023-12-29T13:11:41;98.13;;;92.22;;
36789;SDS011;22740;52.182;8.780;2023-12-29T13:17:49;97.75;;;91.80;;
36789;SDS011;22740;52.182;8.780;2023-12-29T13:23:55;93.78;;;88.07;;
36789;SDS011;22740;52.182;8.780;2023-12-29T13:29:57;98.97;;;92.88;;
36789;SDS011;22740;52.182;8.780;2023-12-29T13:36:05;96.60;;;90.60;;
36789;SDS011;22740;52.182;8.780;2023-12-29T13:42:19;101.18;;;94.68;;
36789;SDS011;22740;52.182;8.780;2023-12-29T13:48:23;99.40;;;93.10;;
36789;SDS011;22740;52.182;8.780;2023-12-29T13:54:27;103.80;;;97.07;;
36789;SDS011;22740;52.182;8.780;2023-12-29T14:00:29;102.65;;;96.25;;
36789;SDS011;22740;52.182;8.780;2023-12-29T14:13:09;105.45;;;98.80;;
36789;SDS011;22740;52.182;8.780;2023-12-29T14:19:15;101.55;;;95.40;;
36789;SDS011;22740;52.182;8.780;2023-12-29T14:25:17;95.40;;;89.45;;
36789;SDS011;22740;52.182;8.780;2023-12-29T14:31:20;97.95;;;91.78;;
36789;SDS011;22740;52.182;8.780;2023-12-29T14:37:22;97.93;;;91.75;;
36789;SDS011;22740;52.182;8.780;2023-12-29T14:43:24;98.15;;;91.68;;
36789;SDS011;22740;52.182;8.780;2023-12-29T14:49:26;97.40;;;91.05;;
36789;SDS011;22740;52.182;8.780;2023-12-29T14:55:29;92.93;;;86.72;;
36789;SDS011;22740;52.182;8.780;2023-12-29T15:01:32;95.00;;;88.50;;
36789;SDS011;22740;52.182;8.780;2023-12-29T15:07:35;99.53;;;92.88;;
36789;SDS011;22740;52.182;8.780;2023-12-29T15:13:36;91.38;;;85.07;;
36789;SDS011;22740;52.182;8.780;2023-12-29T15:19:39;94.50;;;87.88;;
36789;SDS011;22740;52.182;8.780;2023-12-29T15:25:41;94.70;;;88.38;;
36789;SDS011;22740;52.182;8.780;2023-12-29T15:31:43;98.63;;;92.00;;
36789;SDS011;22740;52.182;8.780;2023-12-29T15:37:46;96.15;;;89.65;;
36789;SDS011;22740;52.182;8.780;2023-12-29T15:43:48;94.90;;;88.70;;
36789;SDS011;22740;52.182;8.780;2023-12-29T15:49:51;88.65;;;82.75;;
36789;SDS011;22740;52.182;8.780;2023-12-29T15:55:53;89.88;;;83.88;;
36789;SDS011;22740;52.182;8.780;2023-12-29T16:01:55;87.03;;;81.68;;
36789;SDS011;22740;52.182;8.780;2023-12-29T16:07:57;85.30;;;79.35;;
36789;SDS011;22740;52.182;8.780;2023-12-29T16:14:00;82.65;;;77.13;;
36789;SDS011;22740;52.182;8.780;2023-12-29T16:20:02;79.32;;;74.22;;
36789;SDS011;22740;52.182;8.780;2023-12-29T16:26:08;73.70;;;69.15;;
36789;SDS011;22740;52.182;8.780;2023-12-29T16:32:10;76.88;;;72.07;;
36789;SDS011;22740;52.182;8.780;2023-12-29T16:38:17;75.72;;;71.10;;
36789;SDS011;22740;52.182;8.780;2023-12-29T16:44:21;74.97;;;70.27;;
36789;SDS011;22740;52.182;8.780;2023-12-29T16:50:23;75.18;;;70.18;;
36789;SDS011;22740;52.182;8.780;2023-12-29T16:56:25;75.47;;;70.63;;
36789;SDS011;22740;52.182;8.780;2023-12-29T17:02:27;84.35;;;78.95;;
36789;SDS011;22740;52.182;8.780;2023-12-29T17:08:29;83.47;;;78.25;;
36789;SDS011;22740;52.182;8.780;2023-12-29T17:14:31;89.32;;;83.50;;
36789;SDS011;22740;52.182;8.780;2023-12-29T17:20:33;81.45;;;76.30;;
36789;SDS011;22740;52.182;8.780;2023-12-29T17:26:35;90.03;;;84.57;;
36789;SDS011;22740;52.182;8.780;2023-12-29T17:32:37;105.75;;;99.38;;
36789;SDS011;22740;52.182;8.780;2023-12-29T17:38:39;116.70;;;109.63;;
36789;SDS011;22740;52.182;8.780;2023-12-29T17:44:43;121.23;;;113.83;;
36789;SDS011;22740;52.182;8.780;2023-12-29T17:50:45;122.47;;;114.97;;
36789;SDS011;22740;52.182;8.780;2023-12-29T17:56:47;114.55;;;107.55;;
36789;SDS011;22740;52.182;8.780;2023-12-29T18:02:49;101.82;;;95.53;;
36789;SDS011;22740;52.182;8.780;2023-12-29T18:08:51;93.07;;;87.28;;
36789;SDS011;22740;52.182;8.780;2023-12-29T18:14:56;93.47;;;87.65;;
36789;SDS011;22740;52.182;8.780;2023-12-29T18:20:58;89.05;;;83.72;;
36789;SDS011;22740;52.182;8.780;2023-12-29T18:27:03;92.63;;;86.82;;
36789;SDS011;22740;52.182;8.780;2023-12-29T18:33:09;95.97;;;90.18;;
36789;SDS011;22740;52.182;8.780;2023-12-29T18:39:11;97.50;;;91.70;;
36789;SDS011;22740;52.182;8.780;2023-12-29T18:45:16;99.80;;;93.78;;
36789;SDS011;22740;52.182;8.780;2023-12-29T18:51:18;103.65;;;97.35;;
36789;SDS011;22740;52.182;8.780;2023-12-29T18:57:20;96.45;;;90.57;;
36789;SDS011;22740;52.182;8.780;2023-12-29T19:03:22;99.38;;;93.38;;
36789;SDS011;22740;52.182;8.780;2023-12-29T19:09:24;94.82;;;89.10;;
36789;SDS011;22740;52.182;8.780;2023-12-29T19:15:26;101.63;;;95.25;;
36789;SDS011;22740;52.182;8.780;2023-12-29T19:21:27;101.70;;;95.43;;
36789;SDS011;22740;52.182;8.780;2023-12-29T19:27:31;110.30;;;103.40;;
36789;SDS011;22740;52.182;8.780;2023-12-29T19:33:33;99.38;;;93.47;;
36789;SDS011;22740;52.182;8.780;2023-12-29T19:39:35;111.25;;;104.72;;
36789;SDS011;22740;52.182;8.780;2023-12-29T19:45:37;111.38;;;104.68;;
36789;SDS011;22740;52.182;8.780;2023-12-29T19:51:39;112.20;;;105.40;;
36789;SDS011;22740;52.182;8.780;2023-12-29T19:57:41;554.30;;;510.40;;
36789;SDS011;22740;52.182;8.780;2023-12-29T20:03:44;492.77;;;456.23;;
36789;SDS011;22740;52.182;8.780;2023-12-29T20:09:46;473.98;;;438.13;;
36789;SDS011;22740;52.182;8.780;2023-12-29T20:15:49;478.00;;;441.27;;
36789;SDS011;22740;52.182;8.780;2023-12-29T20:21:51;465.02;;;429.58;;
36789;SDS011;22740;52.182;8.780;2023-12-29T20:27:54;435.42;;;403.27;;
36789;SDS011;22740;52.182;8.780;2023-12-29T20:33:56;401.98;;;372.85;;
36789;SDS011;22740;52.182;8.780;2023-12-29T20:39:59;366.45;;;340.23;;
36789;SDS011;22740;52.182;8.780;2023-12-29T20:46:02;324.02;;;301.25;;
36789;SDS011;22740;52.182;8.780;2023-12-29T20:52:04;240.43;;;223.32;;
36789;SDS011;22740;52.182;8.780;2023-12-29T20:58:06;175.23;;;162.02;;
36789;SDS011;22740;52.182;8.780;2023-12-29T21:04:08;154.98;;;143.98;;
36789;SDS011;22740;52.182;8.780;2023-12-29T21:10:13;154.70;;;143.60;;
36789;SDS011;22740;52.182;8.780;2023-12-29T21:16:15;148.52;;;137.63;;
36789;SDS011;22740;52.182;8.780;2023-12-29T21:22:18;148.07;;;137.27;;
36789;SDS011;22740;52.182;8.780;2023-12-29T21:28:21;147.73;;;137.13;;
36789;SDS011;22740;52.182;8.780;2023-12-29T21:34:23;147.93;;;137.20;;
36789;SDS011;22740;52.182;8.780;2023-12-29T21:40:25;139.20;;;129.30;;
36789;SDS011;22740;52.182;8.780;2023-12-29T21:46:27;138.43;;;128.52;;
36789;SDS011;22740;52.182;8.780;2023-12-29T21:52:29;138.07;;;128.43;;
36789;SDS011;22740;52.182;8.780;2023-12-29T21:58:31;144.02;;;133.85;;
36789;SDS011;22740;52.182;8.780;2023-12-29T22:04:36;155.30;;;143.88;;
36789;SDS011;22740;52.182;8.780;2023-12-29T22:10:39;164.20;;;152.20;;
36789;SDS011;22740;52.182;8.780;2023-12-29T22:16:41;176.95;;;163.68;;
36789;SDS011;22740;52.182;8.780;2023-12-29T22:22:43;180.73;;;167.13;;
36789;SDS011;22740;52.182;8.780;2023-12-29T22:28:47;188.57;;;174.63;;
36789;SDS011;22740;52.182;8.780;2023-12-29T22:34:49;189.03;;;175.03;;
36789;SDS011;22740;52.182;8.780;2023-12-29T22:40:51;193.50;;;179.20;;
36789;SDS011;22740;52.182;8.780;2023-12-29T22:46:54;186.45;;;172.52;;
36789;SDS011;22740;52.182;8.780;2023-12-29T22:52:55;206.65;;;191.27;;
36789;SDS011;22740;52.182;8.780;2023-12-29T22:58:57;199.30;;;184.15;;
36789;SDS011;22740;52.182;8.780;2023-12-29T23:04:59;167.68;;;154.88;;
36789;SDS011;22740;52.182;8.780;2023-12-29T23:11:01;169.48;;;156.65;;
36789;SDS011;22740;52.182;8.780;2023-12-29T23:17:05;147.80;;;137.38;;
36789;SDS011;22740;52.182;8.780;2023-12-29T23:23:10;147.45;;;137.13;;
36789;SDS011;22740;52.182;8.780;2023-12-29T23:29:12;152.75;;;141.77;;
36789;SDS011;22740;52.182;8.780;2023-12-29T23:35:15;156.75;;;145.70;;
36789;SDS011;22740;52.182;8.780;2023-12-29T23:41:25;149.65;;;139.45;;
36789;SDS011;22740;52.182;8.780;2023-12-29T23:47:27;156.30;;;145.45;;
36789;SDS011;22740;52.182;8.780;2023-12-29T23:53:30;156.50;;;145.70;;
36789;SDS011;22740;52.182;8.780;2023-12-29T23:59:33;132.75;;;124.20;;
